createdAt,value
2022-10-14T00:00:09.856Z,0.00
2022-10-14T00:01:09.788Z,0.00
2022-10-14T00:02:09.909Z,0.00
2022-10-14T00:03:09.754Z,0.00
2022-10-14T00:04:09.760Z,0.00
2022-10-14T00:05:09.716Z,0.00
2022-10-14T00:06:09.706Z,0.00
2022-10-14T00:07:09.729Z,0.00
2022-10-14T00:08:09.798Z,0.00
2022-10-14T00:09:09.692Z,0.00
2022-10-14T00:10:09.689Z,0.00
2022-10-14T00:11:09.712Z,0.00
2022-10-14T00:12:09.652Z,0.00
2022-10-14T00:13:09.644Z,0.00
2022-10-14T00:14:09.654Z,0.00
2022-10-14T00:15:09.632Z,0.00
2022-10-14T00:16:09.609Z,0.00
2022-10-14T00:17:09.646Z,0.00
2022-10-14T00:18:09.586Z,0.00
2022-10-14T00:19:09.595Z,0.00
2022-10-14T00:20:09.565Z,0.00
2022-10-14T00:21:09.561Z,0.00
2022-10-14T00:22:09.579Z,0.00
2022-10-14T00:23:09.536Z,0.00
2022-10-14T00:24:09.517Z,0.00
2022-10-14T00:25:09.534Z,0.00
2022-10-14T00:26:09.505Z,0.00
2022-10-14T00:27:09.502Z,0.00
2022-10-14T00:28:09.517Z,0.00
2022-10-14T00:29:09.450Z,0.00
2022-10-14T00:30:09.473Z,0.00
2022-10-14T00:31:09.436Z,0.00
2022-10-14T00:32:09.463Z,0.00
2022-10-14T00:33:09.440Z,0.00
2022-10-14T00:34:09.444Z,0.00
2022-10-14T00:35:09.396Z,0.00
2022-10-14T00:36:09.419Z,0.00
2022-10-14T00:37:09.381Z,0.00
2022-10-14T00:38:09.380Z,0.00
2022-10-14T00:39:09.389Z,0.00
2022-10-14T00:40:09.342Z,0.00
2022-10-14T00:41:09.318Z,0.00
2022-10-14T00:42:09.356Z,0.00
2022-10-14T00:43:09.360Z,0.00
2022-10-14T00:44:09.312Z,0.00
2022-10-14T00:45:09.271Z,0.00
2022-10-14T00:46:09.270Z,0.00
2022-10-14T00:47:09.266Z,0.00
2022-10-14T00:48:09.299Z,0.00
2022-10-14T00:49:09.300Z,0.00
2022-10-14T00:50:09.251Z,0.00
2022-10-14T00:51:09.210Z,0.00
2022-10-14T00:52:09.196Z,0.00
2022-10-14T00:53:09.214Z,0.00
2022-10-14T00:54:09.219Z,0.00
2022-10-14T00:55:09.182Z,0.00
2022-10-14T00:56:09.153Z,0.00
2022-10-14T00:57:09.137Z,0.00
2022-10-14T00:58:09.149Z,0.00
2022-10-14T00:59:09.166Z,0.00
2022-10-14T01:00:09.127Z,0.00
2022-10-14T01:01:09.211Z,0.00
2022-10-14T01:02:09.085Z,0.00
2022-10-14T01:03:09.155Z,0.00
2022-10-14T01:04:09.089Z,0.00
2022-10-14T01:05:09.062Z,0.00
2022-10-14T01:06:09.321Z,0.00
2022-10-14T01:07:09.070Z,0.00
2022-10-14T01:08:09.025Z,0.00
2022-10-14T01:09:09.024Z,0.00
2022-10-14T01:10:09.084Z,0.00
2022-10-14T01:11:08.996Z,0.00
2022-10-14T01:12:28.194Z,0.00
2022-10-14T01:13:09.960Z,0.00
2022-10-14T01:14:09.009Z,0.00
2022-10-14T01:15:08.969Z,0.00
2022-10-14T01:16:08.978Z,0.00
2022-10-14T01:17:08.934Z,0.00
2022-10-14T01:18:08.935Z,0.00
2022-10-14T01:19:08.895Z,0.00
2022-10-14T01:20:08.922Z,0.00
2022-10-14T01:21:08.963Z,0.00
2022-10-14T01:22:08.899Z,0.00
2022-10-14T01:23:08.874Z,0.00
2022-10-14T01:24:08.880Z,0.00
2022-10-14T01:25:08.828Z,0.00
2022-10-14T01:26:08.829Z,0.00
2022-10-14T01:27:08.840Z,0.00
2022-10-14T01:28:08.848Z,0.00
2022-10-14T01:29:08.805Z,0.00
2022-10-14T01:30:08.820Z,0.00
2022-10-14T01:31:08.763Z,0.00
2022-10-14T01:32:08.750Z,0.00
2022-10-14T01:33:08.778Z,0.00
2022-10-14T01:34:08.746Z,0.00
2022-10-14T01:35:08.782Z,0.00
2022-10-14T01:36:08.722Z,0.00
2022-10-14T01:37:08.707Z,0.00
2022-10-14T01:38:08.714Z,0.00
2022-10-14T01:39:08.678Z,0.00
2022-10-14T01:40:08.695Z,0.00
2022-10-14T01:41:08.690Z,0.00
2022-10-14T01:42:08.646Z,0.00
2022-10-14T01:43:08.628Z,0.00
2022-10-14T01:44:08.644Z,0.00
2022-10-14T01:45:08.616Z,0.00
2022-10-14T01:46:08.650Z,0.00
2022-10-14T01:47:08.630Z,0.00
2022-10-14T01:48:08.572Z,0.00
2022-10-14T01:49:08.597Z,0.00
2022-10-14T01:50:08.597Z,0.00
2022-10-14T01:51:08.556Z,0.00
2022-10-14T01:52:08.581Z,0.00
2022-10-14T01:53:08.516Z,0.00
2022-10-14T01:54:08.510Z,0.00
2022-10-14T01:55:08.578Z,0.00
2022-10-14T01:56:08.519Z,0.00
2022-10-14T01:57:08.495Z,0.00
2022-10-14T01:58:08.505Z,0.00
2022-10-14T01:59:08.450Z,0.00
2022-10-14T02:00:08.451Z,0.00
2022-10-14T02:01:08.517Z,0.00
2022-10-14T02:02:08.528Z,0.00
2022-10-14T02:03:08.434Z,0.00
2022-10-14T02:04:08.393Z,0.00
2022-10-14T02:05:08.394Z,0.00
2022-10-14T02:06:08.372Z,0.00
2022-10-14T02:07:08.399Z,0.00
2022-10-14T02:08:08.385Z,0.00
2022-10-14T02:09:08.367Z,0.00
2022-10-14T02:10:08.327Z,0.00
2022-10-14T02:11:08.318Z,0.00
2022-10-14T02:12:08.329Z,0.00
2022-10-14T02:13:08.331Z,0.00
2022-10-14T02:14:08.313Z,0.00
2022-10-14T02:15:08.312Z,0.00
2022-10-14T02:16:08.262Z,0.00
2022-10-14T02:17:08.251Z,0.00
2022-10-14T02:18:08.266Z,0.00
2022-10-14T02:19:08.237Z,0.00
2022-10-14T02:20:08.254Z,0.00
2022-10-14T02:21:08.240Z,0.00
2022-10-14T02:22:08.206Z,0.00
2022-10-14T02:23:08.211Z,0.00
2022-10-14T02:24:08.290Z,0.00
2022-10-14T02:25:08.213Z,0.00
2022-10-14T02:26:08.185Z,0.00
2022-10-14T02:27:08.185Z,0.00
2022-10-14T02:28:08.127Z,0.00
2022-10-14T02:29:08.127Z,0.00
2022-10-14T02:30:08.149Z,0.00
2022-10-14T02:31:08.117Z,0.00
2022-10-14T02:32:08.120Z,0.00
2022-10-14T02:33:08.072Z,0.00
2022-10-14T02:34:08.075Z,0.00
2022-10-14T02:35:08.079Z,0.00
2022-10-14T02:36:08.079Z,0.00
2022-10-14T02:37:08.055Z,0.00
2022-10-14T02:38:08.071Z,0.00
2022-10-14T02:39:08.007Z,0.00
2022-10-14T02:40:08.093Z,0.00
2022-10-14T02:41:08.005Z,0.00
2022-10-14T02:42:07.987Z,0.00
2022-10-14T02:43:07.999Z,0.00
2022-10-14T02:44:08.002Z,0.00
2022-10-14T02:45:07.940Z,0.00
2022-10-14T02:46:08.012Z,0.00
2022-10-14T02:47:07.960Z,0.00
2022-10-14T02:48:07.928Z,0.00
2022-10-14T02:49:07.966Z,0.00
2022-10-14T02:50:07.884Z,0.00
2022-10-14T02:51:07.874Z,0.00
2022-10-14T02:52:08.363Z,0.00
2022-10-14T02:53:07.890Z,0.00
2022-10-14T02:54:07.889Z,0.00
2022-10-14T02:55:07.861Z,0.00
2022-10-14T02:56:07.893Z,0.00
2022-10-14T02:57:07.809Z,0.00
2022-10-14T02:58:07.817Z,0.00
2022-10-14T02:59:07.796Z,0.00
2022-10-14T03:00:07.812Z,0.00
2022-10-14T03:01:07.764Z,0.00
2022-10-14T03:02:07.874Z,0.00
2022-10-14T03:03:07.770Z,0.00
2022-10-14T03:04:07.751Z,0.00
2022-10-14T03:05:07.735Z,0.00
2022-10-14T03:06:07.746Z,0.00
2022-10-14T03:07:07.695Z,0.00
2022-10-14T03:08:07.707Z,0.00
2022-10-14T03:09:07.676Z,0.00
2022-10-14T03:10:07.710Z,0.00
2022-10-14T03:11:07.675Z,0.00
2022-10-14T03:12:07.701Z,0.00
2022-10-14T03:13:07.634Z,0.00
2022-10-14T03:14:07.616Z,0.00
2022-10-14T03:15:07.632Z,0.00
2022-10-14T03:16:07.642Z,0.00
2022-10-14T03:17:07.614Z,0.00
2022-10-14T03:18:07.572Z,0.00
2022-10-14T03:19:07.561Z,0.00
2022-10-14T03:20:07.578Z,0.00
2022-10-14T03:21:08.350Z,0.00
2022-10-14T03:22:07.578Z,0.00
2022-10-14T03:23:07.546Z,0.00
2022-10-14T03:24:07.506Z,0.00
2022-10-14T03:25:07.495Z,0.00
2022-10-14T03:26:10.714Z,0.00
2022-10-14T03:27:08.510Z,0.00
2022-10-14T03:28:07.503Z,0.00
2022-10-14T03:29:07.497Z,0.00
2022-10-14T03:30:07.440Z,0.00
2022-10-14T03:31:07.427Z,0.00
2022-10-14T03:32:07.437Z,0.00
2022-10-14T03:33:08.445Z,0.00
2022-10-14T03:34:07.469Z,0.00
2022-10-14T03:35:07.383Z,0.00
2022-10-14T03:36:07.426Z,0.00
2022-10-14T03:37:07.364Z,0.00
2022-10-14T03:38:07.381Z,0.00
2022-10-14T03:39:07.362Z,0.00
2022-10-14T03:40:07.353Z,0.00
2022-10-14T03:41:07.318Z,0.00
2022-10-14T03:42:07.305Z,0.00
2022-10-14T03:43:07.380Z,0.00
2022-10-14T03:44:07.335Z,0.00
2022-10-14T03:45:07.299Z,0.00
2022-10-14T03:46:07.294Z,0.00
2022-10-14T03:47:07.254Z,0.00
2022-10-14T03:48:07.257Z,0.00
2022-10-14T03:49:07.257Z,0.00
2022-10-14T03:50:07.215Z,0.00
2022-10-14T03:51:07.245Z,0.00
2022-10-14T03:52:07.194Z,0.00
2022-10-14T03:53:07.185Z,0.00
2022-10-14T03:54:07.244Z,0.00
2022-10-14T03:55:07.250Z,0.00
2022-10-14T03:56:07.199Z,0.00
2022-10-14T03:57:07.183Z,0.00
2022-10-14T03:58:07.129Z,0.00
2022-10-14T03:59:07.124Z,0.00
2022-10-14T04:00:07.135Z,0.00
2022-10-14T04:01:07.132Z,0.00
2022-10-14T04:02:07.217Z,0.00
2022-10-14T04:03:07.114Z,0.00
2022-10-14T04:04:07.071Z,0.00
2022-10-14T04:05:07.122Z,0.00
2022-10-14T04:06:07.109Z,0.00
2022-10-14T04:07:07.039Z,0.00
2022-10-14T04:08:07.045Z,0.00
2022-10-14T04:09:07.059Z,0.00
2022-10-14T04:10:07.048Z,0.00
2022-10-14T04:11:06.986Z,0.00
2022-10-14T04:12:06.995Z,0.00
2022-10-14T04:13:06.979Z,0.00
2022-10-14T04:14:06.978Z,0.00
2022-10-14T04:15:06.984Z,0.00
2022-10-14T04:16:06.968Z,0.00
2022-10-14T04:17:06.926Z,0.00
2022-10-14T04:18:06.910Z,0.00
2022-10-14T04:19:06.950Z,0.00
2022-10-14T04:20:06.914Z,0.00
2022-10-14T04:21:06.882Z,0.00
2022-10-14T04:22:06.860Z,0.00
2022-10-14T04:23:06.856Z,0.00
2022-10-14T04:24:08.503Z,0.00
2022-10-14T04:25:06.882Z,0.00
2022-10-14T04:26:06.859Z,0.00
2022-10-14T04:27:06.814Z,0.00
2022-10-14T04:28:06.868Z,0.00
2022-10-14T04:29:06.794Z,0.00
2022-10-14T04:30:06.793Z,0.00
2022-10-14T04:31:06.795Z,0.00
2022-10-14T04:32:06.780Z,0.00
2022-10-14T04:33:06.739Z,0.00
2022-10-14T04:34:06.740Z,0.00
2022-10-14T04:35:06.743Z,0.00
2022-10-14T04:36:06.755Z,0.00
2022-10-14T04:37:06.724Z,0.00
2022-10-14T04:38:06.735Z,0.00
2022-10-14T04:39:06.671Z,0.00
2022-10-14T04:40:06.685Z,0.00
2022-10-14T04:41:06.659Z,0.00
2022-10-14T04:42:06.666Z,0.00
2022-10-14T04:43:06.672Z,0.00
2022-10-14T04:44:06.635Z,0.00
2022-10-14T04:45:06.625Z,0.00
2022-10-14T04:46:06.692Z,0.00
2022-10-14T04:47:06.656Z,0.00
2022-10-14T04:48:06.626Z,0.00
2022-10-14T04:49:06.561Z,0.00
2022-10-14T04:50:06.550Z,0.00
2022-10-14T04:51:06.586Z,0.00
2022-10-14T04:52:06.564Z,0.00
2022-10-14T04:53:10.594Z,0.00
2022-10-14T04:54:07.505Z,0.00
2022-10-14T04:55:06.546Z,0.00
2022-10-14T04:56:06.508Z,0.00
2022-10-14T04:57:06.477Z,0.00
2022-10-14T04:58:06.472Z,0.00
2022-10-14T04:59:06.479Z,0.00
2022-10-14T05:00:06.484Z,0.00
2022-10-14T05:01:06.479Z,0.00
2022-10-14T05:02:06.502Z,0.00
2022-10-14T05:03:06.430Z,0.00
2022-10-14T05:04:06.427Z,0.00
2022-10-14T05:05:06.448Z,0.00
2022-10-14T05:06:06.372Z,0.00
2022-10-14T05:07:06.363Z,0.00
2022-10-14T05:08:06.360Z,0.00
2022-10-14T05:09:06.368Z,0.00
2022-10-14T05:10:06.388Z,0.00
2022-10-14T05:11:06.351Z,0.00
2022-10-14T05:12:06.306Z,0.00
2022-10-14T05:13:06.316Z,0.00
2022-10-14T05:14:06.285Z,0.00
2022-10-14T05:15:06.306Z,0.00
2022-10-14T05:16:06.290Z,4.00
2022-10-14T05:17:06.295Z,4.00
2022-10-14T05:18:06.291Z,0.00
2022-10-14T05:19:06.230Z,0.00
2022-10-14T05:20:06.304Z,4.00
2022-10-14T05:21:06.223Z,4.00
2022-10-14T05:22:06.224Z,4.00
2022-10-14T05:23:06.225Z,4.00
2022-10-14T05:24:06.285Z,4.00
2022-10-14T05:25:06.161Z,8.00
2022-10-14T05:26:06.163Z,8.00
2022-10-14T05:27:06.177Z,8.00
2022-10-14T05:28:06.172Z,8.00
2022-10-14T05:29:06.126Z,8.00
2022-10-14T05:30:06.193Z,12.00
2022-10-14T05:31:06.097Z,16.00
2022-10-14T05:32:06.139Z,12.00
2022-10-14T05:33:06.095Z,16.00
2022-10-14T05:34:06.107Z,16.00
2022-10-14T05:35:06.079Z,16.00
2022-10-14T05:36:06.190Z,16.00
2022-10-14T05:37:06.129Z,20.00
2022-10-14T05:38:06.037Z,20.00
2022-10-14T05:39:06.037Z,20.00
2022-10-14T05:40:06.048Z,24.00
2022-10-14T05:41:06.038Z,28.00
2022-10-14T05:42:05.975Z,28.00
2022-10-14T05:43:05.984Z,28.00
2022-10-14T05:44:05.972Z,32.00
2022-10-14T05:45:05.979Z,32.00
2022-10-14T05:46:05.975Z,36.00
2022-10-14T05:47:05.922Z,40.00
2022-10-14T05:48:05.928Z,40.00
2022-10-14T05:49:05.962Z,48.00
2022-10-14T05:50:05.899Z,48.00
2022-10-14T05:51:05.917Z,60.00
2022-10-14T05:52:05.910Z,64.00
2022-10-14T05:53:05.868Z,64.00
2022-10-14T05:54:05.938Z,64.00
2022-10-14T05:55:05.843Z,64.00
2022-10-14T05:56:05.854Z,64.00
2022-10-14T05:57:05.856Z,72.00
2022-10-14T05:58:05.794Z,76.00
2022-10-14T05:59:05.815Z,84.00
2022-10-14T06:00:05.819Z,92.00
2022-10-14T06:01:05.783Z,88.00
2022-10-14T06:02:05.780Z,88.00
2022-10-14T06:03:05.868Z,96.00
2022-10-14T06:04:05.735Z,100.00
2022-10-14T06:05:05.758Z,112.00
2022-10-14T06:06:05.749Z,108.00
2022-10-14T06:07:05.756Z,116.00
2022-10-14T06:08:05.716Z,124.00
2022-10-14T06:09:11.038Z,136.00
2022-10-14T06:10:06.707Z,144.00
2022-10-14T06:11:05.651Z,152.00
2022-10-14T06:12:05.641Z,172.00
2022-10-14T06:13:05.694Z,184.00
2022-10-14T06:14:05.666Z,192.00
2022-10-14T06:15:05.621Z,200.00
2022-10-14T06:16:05.595Z,200.00
2022-10-14T06:17:05.590Z,204.00
2022-10-14T06:18:05.618Z,224.00
2022-10-14T06:19:05.586Z,232.00
2022-10-14T06:20:05.549Z,232.00
2022-10-14T06:21:05.539Z,220.00
2022-10-14T06:22:05.527Z,216.00
2022-10-14T06:23:05.558Z,216.00
2022-10-14T06:24:05.559Z,208.00
2022-10-14T06:25:05.532Z,208.00
2022-10-14T06:26:05.482Z,212.00
2022-10-14T06:27:05.470Z,196.00
2022-10-14T06:28:05.462Z,200.00
2022-10-14T06:29:05.581Z,216.00
2022-10-14T06:30:05.468Z,224.00
2022-10-14T06:31:05.486Z,228.00
2022-10-14T06:32:05.487Z,244.00
2022-10-14T06:33:05.421Z,252.00
2022-10-14T06:34:05.404Z,248.00
2022-10-14T06:35:05.399Z,248.00
2022-10-14T06:36:05.409Z,284.00
2022-10-14T06:37:05.419Z,304.00
2022-10-14T06:38:05.358Z,308.00
2022-10-14T06:39:05.351Z,300.00
2022-10-14T06:40:05.394Z,308.00
2022-10-14T06:41:05.333Z,320.00
2022-10-14T06:42:08.390Z,332.00
2022-10-14T06:43:06.311Z,348.00
2022-10-14T06:44:05.339Z,344.00
2022-10-14T06:45:05.271Z,344.00
2022-10-14T06:46:05.272Z,348.00
2022-10-14T06:47:05.326Z,336.00
2022-10-14T06:48:05.257Z,332.00
2022-10-14T06:49:05.226Z,324.00
2022-10-14T06:50:05.251Z,324.00
2022-10-14T06:51:05.212Z,372.00
2022-10-14T06:52:05.202Z,384.00
2022-10-14T06:53:05.223Z,388.00
2022-10-14T06:54:05.212Z,396.00
2022-10-14T06:55:05.201Z,388.00
2022-10-14T06:56:05.176Z,388.00
2022-10-14T06:57:05.163Z,392.00
2022-10-14T06:58:05.149Z,408.00
2022-10-14T06:59:05.159Z,416.00
2022-10-14T07:00:05.107Z,416.00
2022-10-14T07:01:05.185Z,424.00
2022-10-14T07:02:05.153Z,444.00
2022-10-14T07:03:05.091Z,444.00
2022-10-14T07:04:05.170Z,444.00
2022-10-14T07:05:05.098Z,444.00
2022-10-14T07:06:05.047Z,444.00
2022-10-14T07:07:05.048Z,420.00
2022-10-14T07:08:05.055Z,436.00
2022-10-14T07:09:05.021Z,428.00
2022-10-14T07:10:05.166Z,412.00
2022-10-14T07:11:04.982Z,400.00
2022-10-14T07:12:04.990Z,448.00
2022-10-14T07:13:04.973Z,480.00
2022-10-14T07:14:04.968Z,504.00
2022-10-14T07:15:05.078Z,516.00
2022-10-14T07:16:04.995Z,516.00
2022-10-14T07:17:04.916Z,516.00
2022-10-14T07:18:04.911Z,504.00
2022-10-14T07:19:04.893Z,488.00
2022-10-14T07:20:04.888Z,492.00
2022-10-14T07:21:04.904Z,512.00
2022-10-14T07:22:04.907Z,528.00
2022-10-14T07:23:04.859Z,540.00
2022-10-14T07:24:04.868Z,560.00
2022-10-14T07:25:04.842Z,576.00
2022-10-14T07:26:04.824Z,588.00
2022-10-14T07:27:04.854Z,592.00
2022-10-14T07:28:04.811Z,600.00
2022-10-14T07:29:04.952Z,600.00
2022-10-14T07:30:04.777Z,608.00
2022-10-14T07:31:04.775Z,628.00
2022-10-14T07:32:04.760Z,628.00
2022-10-14T07:33:04.772Z,628.00
2022-10-14T07:34:04.796Z,636.00
2022-10-14T07:35:04.776Z,648.00
2022-10-14T07:36:04.709Z,656.00
2022-10-14T07:37:04.701Z,656.00
2022-10-14T07:38:04.718Z,668.00
2022-10-14T07:39:04.706Z,668.00
2022-10-14T07:40:04.666Z,672.00
2022-10-14T07:41:04.723Z,676.00
2022-10-14T07:42:04.644Z,672.00
2022-10-14T07:43:04.642Z,668.00
2022-10-14T07:44:04.647Z,692.00
2022-10-14T07:45:04.604Z,700.00
2022-10-14T07:46:04.613Z,700.00
2022-10-14T07:47:04.618Z,712.00
2022-10-14T07:48:04.587Z,712.00
2022-10-14T07:49:04.580Z,712.00
2022-10-14T07:50:04.578Z,716.00
2022-10-14T07:51:05.425Z,724.00
2022-10-14T07:52:04.551Z,716.00
2022-10-14T07:53:04.517Z,712.00
2022-10-14T07:54:04.539Z,728.00
2022-10-14T07:55:04.510Z,740.00
2022-10-14T07:56:04.510Z,736.00
2022-10-14T07:57:04.479Z,760.00
2022-10-14T07:58:04.462Z,768.00
2022-10-14T07:59:04.473Z,752.00
2022-10-14T08:00:04.500Z,748.00
2022-10-14T08:01:04.445Z,760.00
2022-10-14T08:02:04.454Z,756.00
2022-10-14T08:03:04.475Z,704.00
2022-10-14T08:04:04.397Z,644.00
2022-10-14T08:05:25.687Z,596.00
2022-10-14T08:06:05.402Z,588.00
2022-10-14T08:07:04.390Z,588.00
2022-10-14T08:08:04.403Z,612.00
2022-10-14T08:09:04.348Z,544.00
2022-10-14T08:10:04.335Z,488.00
2022-10-14T08:11:04.356Z,452.00
2022-10-14T08:12:04.331Z,428.00
2022-10-14T08:13:04.336Z,436.00
2022-10-14T08:14:04.347Z,444.00
2022-10-14T08:15:04.281Z,496.00
2022-10-14T08:16:04.280Z,528.00
2022-10-14T08:17:04.298Z,560.00
2022-10-14T08:18:04.273Z,572.00
2022-10-14T08:19:04.234Z,632.00
2022-10-14T08:20:04.231Z,596.00
2022-10-14T08:21:04.221Z,612.00
2022-10-14T08:22:04.248Z,576.00
2022-10-14T08:23:04.201Z,600.00
2022-10-14T08:24:04.208Z,636.00
2022-10-14T08:25:04.163Z,640.00
2022-10-14T08:26:04.148Z,616.00
2022-10-14T08:27:04.221Z,664.00
2022-10-14T08:28:04.136Z,644.00
2022-10-14T08:29:04.146Z,656.00
2022-10-14T08:30:10.249Z,644.00
2022-10-14T08:31:05.909Z,672.00
2022-10-14T08:32:04.128Z,668.00
2022-10-14T08:33:04.102Z,640.00
2022-10-14T08:34:04.065Z,604.00
2022-10-14T08:35:04.075Z,612.00
2022-10-14T08:36:04.040Z,616.00
2022-10-14T08:37:04.039Z,564.00
2022-10-14T08:38:12.958Z,556.00
2022-10-14T08:39:04.123Z,564.00
2022-10-14T08:40:04.011Z,516.00
2022-10-14T08:41:04.010Z,376.00
2022-10-14T08:42:04.014Z,328.00
2022-10-14T08:43:03.960Z,304.00
2022-10-14T08:44:03.955Z,300.00
2022-10-14T08:45:03.951Z,292.00
2022-10-14T08:46:03.942Z,296.00
2022-10-14T08:47:03.945Z,292.00
2022-10-14T08:48:03.933Z,296.00
2022-10-14T08:49:03.905Z,304.00
2022-10-14T08:50:03.914Z,316.00
2022-10-14T08:51:03.885Z,320.00
2022-10-14T08:52:03.877Z,332.00
2022-10-14T08:53:03.902Z,344.00
2022-10-14T08:54:03.857Z,356.00
2022-10-14T08:55:03.824Z,380.00
2022-10-14T08:56:03.843Z,408.00
2022-10-14T08:57:03.899Z,424.00
2022-10-14T08:58:05.122Z,428.00
2022-10-14T08:59:03.882Z,428.00
2022-10-14T09:00:03.770Z,440.00
2022-10-14T09:01:03.801Z,440.00
2022-10-14T09:02:03.753Z,436.00
2022-10-14T09:03:03.824Z,448.00
2022-10-14T09:04:03.792Z,496.00
2022-10-14T09:05:03.722Z,436.00
2022-10-14T09:06:03.707Z,428.00
2022-10-14T09:07:03.720Z,432.00
2022-10-14T09:08:03.692Z,492.00
2022-10-14T09:09:03.703Z,500.00
2022-10-14T09:10:03.650Z,536.00
2022-10-14T09:11:03.641Z,444.00
2022-10-14T09:12:03.641Z,380.00
2022-10-14T09:13:03.664Z,376.00
2022-10-14T09:14:03.667Z,392.00
2022-10-14T09:15:03.601Z,372.00
2022-10-14T09:16:03.589Z,380.00
2022-10-14T09:17:03.625Z,388.00
2022-10-14T09:19:03.606Z,396.00
2022-10-14T09:20:03.596Z,392.00
2022-10-14T09:21:03.526Z,396.00
2022-10-14T09:22:03.528Z,388.00
2022-10-14T09:23:03.545Z,372.00
2022-10-14T09:24:03.501Z,364.00
2022-10-14T09:25:03.541Z,348.00
2022-10-14T09:26:03.499Z,340.00
2022-10-14T09:27:03.462Z,340.00
2022-10-14T09:28:03.473Z,324.00
2022-10-14T09:29:03.460Z,316.00
2022-10-14T09:30:03.450Z,324.00
2022-10-14T09:31:03.432Z,332.00
2022-10-14T09:32:03.453Z,332.00
2022-10-14T09:33:03.405Z,400.00
2022-10-14T09:34:03.406Z,448.00
2022-10-14T09:35:03.398Z,528.00
2022-10-14T09:36:03.414Z,480.00
2022-10-14T09:37:03.376Z,524.00
2022-10-14T09:38:03.386Z,576.00
2022-10-14T09:39:06.174Z,652.00
2022-10-14T09:40:03.351Z,576.00
2022-10-14T09:41:03.360Z,484.00
2022-10-14T09:42:03.316Z,504.00
2022-10-14T09:43:03.283Z,512.00
2022-10-14T09:44:03.274Z,528.00
2022-10-14T09:45:03.348Z,560.00
2022-10-14T09:46:03.253Z,624.00
2022-10-14T09:47:03.248Z,624.00
2022-10-14T09:48:03.244Z,716.00
2022-10-14T09:49:03.223Z,648.00
2022-10-14T09:50:03.255Z,600.00
2022-10-14T09:51:03.207Z,572.00
2022-10-14T09:52:03.196Z,544.00
2022-10-14T09:53:03.188Z,540.00
2022-10-14T09:54:03.218Z,520.00
2022-10-14T09:55:03.145Z,516.00
2022-10-14T09:56:03.166Z,556.00
2022-10-14T09:57:03.167Z,576.00
2022-10-14T09:58:03.119Z,580.00
2022-10-14T09:59:03.116Z,632.00
2022-10-14T10:00:03.123Z,704.00
2022-10-14T10:01:03.091Z,612.00
2022-10-14T10:02:03.081Z,596.00
2022-10-14T10:03:03.068Z,560.00
2022-10-14T10:05:03.061Z,544.00
2022-10-14T10:06:03.076Z,564.00
2022-10-14T10:07:03.079Z,624.00
2022-10-14T10:08:03.032Z,664.00
2022-10-14T10:09:02.990Z,688.00
2022-10-14T10:10:02.988Z,696.00
2022-10-14T10:11:06.527Z,752.00
2022-10-14T10:12:03.011Z,836.00
2022-10-14T10:13:03.039Z,892.00
2022-10-14T10:14:02.976Z,924.00
2022-10-14T10:15:02.928Z,896.00
2022-10-14T10:16:02.941Z,888.00
2022-10-14T10:17:02.899Z,912.00
2022-10-14T10:18:02.899Z,868.00
2022-10-14T10:19:02.914Z,844.00
2022-10-14T10:20:02.911Z,764.00
2022-10-14T10:21:02.866Z,788.00
2022-10-14T10:22:02.865Z,732.00
2022-10-14T10:23:02.836Z,700.00
2022-10-14T10:24:02.828Z,688.00
2022-10-14T10:25:02.853Z,644.00
2022-10-14T10:26:02.820Z,592.00
2022-10-14T10:27:02.815Z,664.00
2022-10-14T10:28:02.814Z,660.00
2022-10-14T10:29:02.857Z,664.00
2022-10-14T10:30:02.785Z,660.00
2022-10-14T10:31:02.735Z,660.00
2022-10-14T10:32:02.741Z,740.00
2022-10-14T10:33:02.749Z,592.00
2022-10-14T10:34:02.712Z,576.00
2022-10-14T10:35:02.702Z,576.00
2022-10-14T10:36:02.680Z,612.00
2022-10-14T10:37:02.688Z,592.00
2022-10-14T10:38:03.031Z,532.00
2022-10-14T10:39:02.645Z,492.00
2022-10-14T10:40:02.694Z,500.00
2022-10-14T10:41:02.642Z,500.00
2022-10-14T10:42:02.611Z,524.00
2022-10-14T10:43:02.619Z,568.00
2022-10-14T10:44:02.609Z,584.00
2022-10-14T10:45:02.615Z,588.00
2022-10-14T10:46:02.643Z,628.00
2022-10-14T10:47:02.554Z,676.00
2022-10-14T10:48:02.559Z,756.00
2022-10-14T10:49:02.571Z,812.00
2022-10-14T10:50:02.560Z,888.00
2022-10-14T10:51:02.520Z,868.00
2022-10-14T10:52:02.496Z,784.00
2022-10-14T10:53:02.530Z,800.00
2022-10-14T10:54:02.485Z,812.00
2022-10-14T10:55:02.510Z,704.00
2022-10-14T10:56:02.560Z,600.00
2022-10-14T10:57:02.464Z,592.00
2022-10-14T10:58:04.800Z,600.00
2022-10-14T10:59:03.439Z,572.00
2022-10-14T11:00:02.421Z,608.00
2022-10-14T11:01:02.465Z,660.00
2022-10-14T11:02:02.389Z,676.00
2022-10-14T11:03:02.392Z,712.00
2022-10-14T11:04:02.367Z,772.00
2022-10-14T11:05:02.359Z,820.00
2022-10-14T11:06:02.363Z,864.00
2022-10-14T11:07:02.371Z,884.00
2022-10-14T11:08:02.332Z,864.00
2022-10-14T11:09:02.307Z,876.00
2022-10-14T11:10:02.302Z,944.00
2022-10-14T11:11:02.298Z,1072.00
2022-10-14T11:12:02.300Z,1036.00
2022-10-14T11:13:02.316Z,916.00
2022-10-14T11:14:02.265Z,896.00
2022-10-14T11:15:02.240Z,792.00
2022-10-14T11:16:02.244Z,784.00
2022-10-14T11:17:02.235Z,772.00
2022-10-14T11:18:02.246Z,732.00
2022-10-14T11:19:02.252Z,708.00
2022-10-14T11:20:02.191Z,712.00
2022-10-14T11:21:02.178Z,724.00
2022-10-14T11:22:02.167Z,724.00
2022-10-14T11:23:02.177Z,728.00
2022-10-14T11:24:02.326Z,736.00
2022-10-14T11:25:02.138Z,728.00
2022-10-14T11:26:02.188Z,736.00
2022-10-14T11:27:02.106Z,760.00
2022-10-14T11:28:02.130Z,772.00
2022-10-14T11:29:02.174Z,768.00
2022-10-14T11:30:02.068Z,760.00
2022-10-14T11:31:02.065Z,760.00
2022-10-14T11:32:02.083Z,768.00
2022-10-14T11:33:02.037Z,796.00
2022-10-14T11:34:02.043Z,796.00
2022-10-14T11:35:02.054Z,776.00
2022-10-14T11:36:02.004Z,792.00
2022-10-14T11:37:01.991Z,816.00
2022-10-14T11:38:02.071Z,832.00
2022-10-14T11:39:01.979Z,836.00
2022-10-14T11:40:01.991Z,836.00
2022-10-14T11:41:01.992Z,860.00
2022-10-14T11:42:01.948Z,904.00
2022-10-14T11:43:01.951Z,932.00
2022-10-14T11:44:01.977Z,944.00
2022-10-14T11:45:01.924Z,932.00
2022-10-14T11:46:01.995Z,972.00
2022-10-14T11:47:01.880Z,1024.00
2022-10-14T11:48:01.881Z,1060.00
2022-10-14T11:49:01.857Z,1112.00
2022-10-14T11:50:01.885Z,1144.00
2022-10-14T11:51:01.857Z,1176.00
2022-10-14T11:52:01.853Z,1212.00
2022-10-14T11:53:01.871Z,1216.00
2022-10-14T11:54:01.811Z,1228.00
2022-10-14T11:55:01.834Z,1252.00
2022-10-14T11:56:01.830Z,1264.00
2022-10-14T11:57:01.789Z,1268.00
2022-10-14T11:58:01.957Z,1260.00
2022-10-14T11:59:01.755Z,1252.00
2022-10-14T12:00:01.778Z,1260.00
2022-10-14T12:01:01.749Z,1268.00
2022-10-14T12:02:01.732Z,1272.00
2022-10-14T12:03:01.819Z,1272.00
2022-10-14T12:04:01.729Z,1268.00
2022-10-14T12:05:01.682Z,1264.00
2022-10-14T12:06:01.670Z,1252.00
2022-10-14T12:07:01.666Z,1236.00
2022-10-14T12:08:01.667Z,1216.00
2022-10-14T12:09:01.678Z,1220.00
2022-10-14T12:10:01.633Z,1240.00
2022-10-14T12:11:01.614Z,1268.00
2022-10-14T12:12:01.622Z,1260.00
2022-10-14T12:13:01.630Z,1268.00
2022-10-14T12:14:01.600Z,1280.00
2022-10-14T12:15:01.572Z,1292.00
2022-10-14T12:16:01.576Z,1288.00
2022-10-14T12:17:01.631Z,1284.00
2022-10-14T12:18:01.560Z,1260.00
2022-10-14T12:19:01.543Z,1248.00
2022-10-14T12:20:01.554Z,1244.00
2022-10-14T12:21:02.011Z,1244.00
2022-10-14T12:22:01.512Z,1228.00
2022-10-14T12:23:01.510Z,1208.00
2022-10-14T12:24:06.537Z,1216.00
2022-10-14T12:25:01.483Z,1232.00
2022-10-14T12:26:01.444Z,1212.00
2022-10-14T12:27:01.439Z,1220.00
2022-10-14T12:28:01.435Z,1228.00
2022-10-14T12:29:03.672Z,1228.00
2022-10-14T12:30:01.413Z,1220.00
2022-10-14T12:31:01.424Z,1216.00
2022-10-14T12:32:01.429Z,1212.00
2022-10-14T12:33:01.379Z,1188.00
2022-10-14T12:34:01.385Z,1164.00
2022-10-14T12:35:01.389Z,1164.00
2022-10-14T12:36:01.542Z,1160.00
2022-10-14T12:37:01.362Z,1144.00
2022-10-14T12:38:01.314Z,1132.00
2022-10-14T12:39:01.317Z,1136.00
2022-10-14T12:40:01.294Z,1136.00
2022-10-14T12:41:01.388Z,1116.00
2022-10-14T12:42:01.291Z,1108.00
2022-10-14T12:43:01.303Z,1100.00
2022-10-14T12:44:02.026Z,1060.00
2022-10-14T12:45:01.241Z,1012.00
2022-10-14T12:46:01.243Z,988.00
2022-10-14T12:47:01.224Z,972.00
2022-10-14T12:48:01.252Z,960.00
2022-10-14T12:49:01.192Z,960.00
2022-10-14T12:50:01.194Z,932.00